createdAt,value
2023-04-18T00:01:55.734Z,37.50
2023-04-18T00:04:23.760Z,30.70
2023-04-18T00:06:51.978Z,30.53
2023-04-18T00:09:19.894Z,32.93
2023-04-18T00:11:47.863Z,34.07
2023-04-18T00:14:17.151Z,32.47
2023-04-18T00:16:45.965Z,31.90
2023-04-18T00:19:14.350Z,34.27
2023-04-18T00:21:44.721Z,34.70
2023-04-18T00:24:13.005Z,34.07
2023-04-18T00:26:41.166Z,30.37
2023-04-18T00:29:09.050Z,30.60
2023-04-18T00:31:38.449Z,30.17
2023-04-18T00:34:06.294Z,38.07
2023-04-18T00:36:34.180Z,29.27
2023-04-18T00:39:02.100Z,28.57
2023-04-18T00:41:30.031Z,34.93
2023-04-18T00:43:57.944Z,28.23
2023-04-18T00:46:25.832Z,27.90
2023-04-18T00:48:55.096Z,33.53
2023-04-18T00:51:22.954Z,31.80
2023-04-18T00:53:50.804Z,32.63
2023-04-18T00:56:18.766Z,33.33
2023-04-18T00:58:46.632Z,34.37
2023-04-18T01:01:14.522Z,33.53
2023-04-18T01:03:42.597Z,34.90
2023-04-18T01:06:12.121Z,30.10
2023-04-18T01:08:39.984Z,29.37
2023-04-18T01:11:07.860Z,32.53
2023-04-18T01:13:35.730Z,28.97
2023-04-18T01:16:03.655Z,32.77
2023-04-18T01:18:31.627Z,37.93
2023-04-18T01:21:00.575Z,36.53
2023-04-18T01:23:30.592Z,31.17
2023-04-18T01:25:59.928Z,32.77
2023-04-18T01:28:27.904Z,35.67
2023-04-18T01:30:55.890Z,37.40
2023-04-18T01:33:23.777Z,32.27
2023-04-18T01:35:51.644Z,36.20
2023-04-18T01:38:19.512Z,33.10
2023-04-18T01:40:47.554Z,34.50
2023-04-18T01:43:16.841Z,43.10
2023-04-18T01:45:44.771Z,33.77
2023-04-18T01:48:12.696Z,41.03
2023-04-18T01:50:40.663Z,39.27
2023-04-18T01:53:08.553Z,39.10
2023-04-18T01:55:36.458Z,38.33
2023-04-18T01:58:04.415Z,37.43
2023-04-18T02:00:33.764Z,38.87
2023-04-18T02:03:01.894Z,37.53
2023-04-18T02:05:30.072Z,40.27
2023-04-18T02:07:57.941Z,38.17
2023-04-18T02:10:26.011Z,40.57
2023-04-18T02:12:54.000Z,40.33
2023-04-18T02:15:22.256Z,40.43
2023-04-18T02:17:51.610Z,41.23
2023-04-18T02:20:19.495Z,43.90
2023-04-18T02:22:47.901Z,38.73
2023-04-18T02:25:15.758Z,42.67
2023-04-18T02:27:43.645Z,41.97
2023-04-18T02:30:12.159Z,42.17
2023-04-18T02:32:40.135Z,41.03
2023-04-18T02:35:09.956Z,41.60
2023-04-18T02:37:37.846Z,43.63
2023-04-18T02:40:07.273Z,40.10
2023-04-18T02:42:35.188Z,39.23
2023-04-18T02:45:03.084Z,42.17
2023-04-18T02:47:35.392Z,37.93
2023-04-18T02:50:13.217Z,36.40
2023-04-18T02:52:41.106Z,36.60
2023-04-18T02:55:09.674Z,35.27
2023-04-18T02:57:37.536Z,36.77
2023-04-18T03:00:07.203Z,37.70
2023-04-18T03:02:35.270Z,38.97
2023-04-18T03:05:03.426Z,34.90
2023-04-18T03:07:32.777Z,41.10
2023-04-18T03:10:00.970Z,38.80
2023-04-18T03:12:28.794Z,37.40
2023-04-18T03:14:56.679Z,38.67
2023-04-18T03:17:24.573Z,39.27
2023-04-18T03:19:52.476Z,37.13
2023-04-18T03:22:20.419Z,39.93
2023-04-18T03:24:49.652Z,33.47
2023-04-18T03:27:17.605Z,39.37
2023-04-18T03:29:45.552Z,35.63
2023-04-18T03:32:13.427Z,37.17
2023-04-18T03:34:41.345Z,35.50
2023-04-18T03:37:09.276Z,40.93
2023-04-18T03:39:37.144Z,39.87
2023-04-18T03:42:06.518Z,34.30
2023-04-18T03:44:34.439Z,35.80
2023-04-18T03:47:02.396Z,40.00
2023-04-18T03:49:30.256Z,37.43
2023-04-18T03:51:58.144Z,38.43
2023-04-18T03:54:26.011Z,37.73
2023-04-18T03:56:53.869Z,36.10
2023-04-18T03:59:23.133Z,38.30
2023-04-18T04:01:51.045Z,40.17
2023-04-18T04:04:19.195Z,33.73
2023-04-18T04:06:47.319Z,36.50
2023-04-18T04:09:15.210Z,35.57
2023-04-18T04:11:43.420Z,34.23
2023-04-18T04:14:11.382Z,37.87
2023-04-18T04:16:40.694Z,34.80
2023-04-18T04:19:08.666Z,42.53
2023-04-18T04:21:36.591Z,39.73
2023-04-18T04:24:04.785Z,40.10
2023-04-18T04:26:32.638Z,39.73
2023-04-18T04:29:00.495Z,44.60
2023-04-18T04:31:28.807Z,38.63
2023-04-18T04:33:58.061Z,40.67
2023-04-18T04:36:27.279Z,41.60
2023-04-18T04:38:55.207Z,40.83
2023-04-18T04:41:24.629Z,39.17
2023-04-18T04:43:53.170Z,41.17
2023-04-18T04:46:21.201Z,40.03
2023-04-18T04:48:49.754Z,43.57
2023-04-18T04:51:18.986Z,42.27
2023-04-18T04:53:46.893Z,37.60
2023-04-18T04:56:14.790Z,38.27
2023-04-18T04:58:42.698Z,38.53
2023-04-18T05:01:11.588Z,46.53
2023-04-18T05:03:39.629Z,40.73
2023-04-18T05:06:07.797Z,37.17
2023-04-18T05:08:37.032Z,36.90
2023-04-18T05:11:04.981Z,38.07
2023-04-18T05:13:32.889Z,37.70
2023-04-18T05:16:00.745Z,34.93
2023-04-18T05:18:28.626Z,38.17
2023-04-18T05:20:56.961Z,33.03
2023-04-18T05:23:24.960Z,37.83
2023-04-18T05:25:54.212Z,34.40
2023-04-18T05:28:22.828Z,35.00
2023-04-18T05:30:51.097Z,32.30
2023-04-18T05:33:19.096Z,32.70
2023-04-18T05:35:47.077Z,35.43
2023-04-18T05:38:15.001Z,32.97
2023-04-18T05:40:43.575Z,45.30
2023-04-18T05:43:12.950Z,34.20
2023-04-18T05:45:40.855Z,36.97
2023-04-18T05:48:08.793Z,30.60
2023-04-18T05:50:36.710Z,33.90
2023-04-18T05:53:04.578Z,30.23
2023-04-18T05:55:32.558Z,36.47
2023-04-18T05:58:00.485Z,33.53
2023-04-18T06:00:29.827Z,36.77
2023-04-18T06:02:57.860Z,44.27
2023-04-18T06:05:26.231Z,39.60
2023-04-18T06:07:54.293Z,36.43
2023-04-18T06:10:22.264Z,37.90
2023-04-18T06:12:50.121Z,37.37
2023-04-18T06:15:18.087Z,39.93
2023-04-18T06:17:47.425Z,36.10
2023-04-18T06:20:15.488Z,37.43
2023-04-18T06:22:43.478Z,36.53
2023-04-18T06:25:11.469Z,40.37
2023-04-18T06:27:39.524Z,36.30
2023-04-18T06:30:08.298Z,36.20
2023-04-18T06:32:36.522Z,32.47
2023-04-18T06:35:06.716Z,34.37
2023-04-18T06:37:34.574Z,34.13
2023-04-18T06:40:02.606Z,42.70
2023-04-18T06:42:30.453Z,38.87
2023-04-18T06:44:58.377Z,35.67
2023-04-18T06:47:26.626Z,31.93
2023-04-18T06:49:54.613Z,32.60
2023-04-18T06:52:23.965Z,30.73
2023-04-18T06:54:52.157Z,34.33
2023-04-18T06:57:20.036Z,38.80
2023-04-18T06:59:49.070Z,33.20
2023-04-18T07:02:16.998Z,34.07
2023-04-18T07:04:45.031Z,35.10
2023-04-18T07:07:13.155Z,35.63
2023-04-18T07:09:42.446Z,35.40
2023-04-18T07:12:10.649Z,39.53
2023-04-18T07:14:39.577Z,29.87
2023-04-18T07:17:07.624Z,30.10
2023-04-18T07:19:35.602Z,31.23
2023-04-18T07:22:03.493Z,32.27
2023-04-18T07:24:31.545Z,26.20
2023-04-18T07:27:01.520Z,31.47
2023-04-18T07:29:29.451Z,30.37
2023-04-18T07:31:58.038Z,31.27
2023-04-18T07:34:26.798Z,28.30
2023-04-18T07:36:55.876Z,32.73
2023-04-18T07:39:23.816Z,27.97
2023-04-18T07:41:51.856Z,32.37
2023-04-18T07:44:22.005Z,26.97
2023-04-18T07:46:50.549Z,25.80
2023-04-18T07:49:18.844Z,24.50
2023-04-18T07:51:46.958Z,27.27
2023-04-18T07:54:15.423Z,25.13
2023-04-18T07:56:43.348Z,31.13
2023-04-18T07:59:11.445Z,24.50
2023-04-18T08:01:40.983Z,25.27
2023-04-18T08:04:08.988Z,28.57
2023-04-18T08:06:37.273Z,26.33
2023-04-18T08:09:06.066Z,24.83
2023-04-18T08:11:34.123Z,25.23
2023-04-18T08:14:02.044Z,22.17
2023-04-18T08:16:29.998Z,25.97
2023-04-18T08:18:59.288Z,23.47
2023-04-18T08:21:27.470Z,24.93
2023-04-18T08:23:55.655Z,23.37
2023-04-18T08:26:23.610Z,23.27
2023-04-18T08:28:51.749Z,26.47
2023-04-18T08:33:47.948Z,24.60
2023-04-18T08:36:17.310Z,21.73
2023-04-18T08:38:45.188Z,23.17
2023-04-18T08:41:13.174Z,22.77
2023-04-18T08:43:41.215Z,23.37
2023-04-18T08:46:09.203Z,23.70
2023-04-18T08:48:37.202Z,27.07
2023-04-18T08:51:05.609Z,19.07
2023-04-18T08:53:35.267Z,18.50
2023-04-18T08:56:05.658Z,22.07
2023-04-18T08:58:34.982Z,21.80
2023-04-18T09:01:03.096Z,17.03
2023-04-18T09:03:39.697Z,17.60
2023-04-18T09:06:09.450Z,23.90
2023-04-18T09:08:39.225Z,22.33
2023-04-18T09:11:23.979Z,23.03
2023-04-18T09:13:51.976Z,21.87
2023-04-18T09:16:20.802Z,20.97
2023-04-18T09:19:12.336Z,23.77
2023-04-18T09:21:40.899Z,24.67
2023-04-18T09:24:21.117Z,23.03
2023-04-18T09:26:50.822Z,25.93
2023-04-18T09:29:22.418Z,31.80
2023-04-18T09:31:57.691Z,23.77
2023-04-18T09:34:26.329Z,23.40
2023-04-18T09:37:08.171Z,31.33
2023-04-18T09:39:38.506Z,28.27
2023-04-18T09:42:07.146Z,24.60
2023-04-18T09:44:35.059Z,26.13
2023-04-18T09:47:03.120Z,29.00
2023-04-18T09:49:31.040Z,28.03
2023-04-18T09:51:59.046Z,28.97
2023-04-18T09:54:27.400Z,26.57
2023-04-18T09:56:57.075Z,33.97
2023-04-18T09:59:36.564Z,23.53
2023-04-18T10:02:04.880Z,26.70
2023-04-18T10:04:35.744Z,29.87
2023-04-18T10:07:04.005Z,30.77
2023-04-18T10:09:33.395Z,24.47
2023-04-18T10:12:03.486Z,27.50
2023-04-18T10:14:32.514Z,25.43
2023-04-18T10:17:01.100Z,24.37
2023-04-18T10:19:30.185Z,22.43
2023-04-18T10:21:59.153Z,20.10
2023-04-18T10:24:48.507Z,17.63
2023-04-18T10:27:18.535Z,21.77
2023-04-18T10:29:50.729Z,21.67
2023-04-18T10:32:19.130Z,25.80
2023-04-18T10:34:47.814Z,19.30
2023-04-18T10:37:17.759Z,21.03
2023-04-18T10:39:50.665Z,17.60
2023-04-18T10:42:20.039Z,22.00
2023-04-18T10:45:18.494Z,22.63
2023-04-18T10:47:46.448Z,23.03
2023-04-18T10:50:14.844Z,16.60
2023-04-18T10:52:45.713Z,21.43
2023-04-18T10:55:20.633Z,39.47
2023-04-18T10:57:50.703Z,20.17
2023-04-18T11:00:21.794Z,20.43
2023-04-18T11:02:52.227Z,19.57
2023-04-18T11:05:21.839Z,19.77
2023-04-18T11:07:50.312Z,19.67
2023-04-18T11:10:19.009Z,22.13
2023-04-18T11:12:46.982Z,19.73
2023-04-18T11:15:17.769Z,24.97
2023-04-18T11:17:45.795Z,21.27
2023-04-18T11:20:14.956Z,23.03
2023-04-18T11:22:47.606Z,17.73
2023-04-18T11:25:15.761Z,17.40
2023-04-18T11:27:45.116Z,15.33
2023-04-18T11:30:13.850Z,15.13
2023-04-18T11:32:47.618Z,20.40
2023-04-18T11:35:17.733Z,16.87
2023-04-18T11:37:45.997Z,15.73
2023-04-18T11:40:14.615Z,19.53
2023-04-18T11:42:42.550Z,17.15
2023-04-18T11:45:12.443Z,17.13
2023-04-18T11:47:41.946Z,16.52
2023-04-18T11:50:12.764Z,16.73
2023-04-18T11:52:42.947Z,16.23
2023-04-18T11:55:17.893Z,16.98
2023-04-18T11:57:56.303Z,14.98
2023-04-18T12:00:33.667Z,15.63
2023-04-18T12:03:02.996Z,16.00
2023-04-18T12:05:33.103Z,15.70
2023-04-18T12:08:11.502Z,19.08
2023-04-18T12:10:39.778Z,18.05
2023-04-18T12:13:09.253Z,17.95
2023-04-18T12:15:39.421Z,13.95
2023-04-18T12:18:09.773Z,17.42
2023-04-18T12:20:46.007Z,16.45
2023-04-18T12:23:35.576Z,18.77
2023-04-18T12:26:04.351Z,15.85
2023-04-18T12:28:32.226Z,13.98
2023-04-18T12:31:00.915Z,15.57
2023-04-18T12:33:28.978Z,16.13
2023-04-18T12:35:58.215Z,16.63
2023-04-18T12:38:27.076Z,14.65
2023-04-18T12:40:54.994Z,15.95
2023-04-18T12:43:23.076Z,26.85
2023-04-18T12:45:51.109Z,41.30
2023-04-18T12:48:19.326Z,25.27
2023-04-18T12:50:47.282Z,21.40
2023-04-18T12:53:16.782Z,24.13
2023-04-18T12:55:44.759Z,25.95
2023-04-18T12:58:15.178Z,13.07
2023-04-18T13:00:43.151Z,14.80
2023-04-18T13:03:13.173Z,17.08
2023-04-18T13:05:41.573Z,13.10
2023-04-18T13:08:16.751Z,13.48
2023-04-18T13:10:47.678Z,13.90
2023-04-18T13:13:15.789Z,16.15
2023-04-18T13:15:43.831Z,12.55
2023-04-18T13:18:11.724Z,13.32
2023-04-18T13:20:39.635Z,14.07
2023-04-18T13:23:07.582Z,15.13
2023-04-18T13:25:35.576Z,26.15
2023-04-18T13:28:05.853Z,14.15
2023-04-18T13:30:38.453Z,14.00
2023-04-18T13:33:06.937Z,18.73
2023-04-18T13:35:35.381Z,13.93
2023-04-18T13:38:04.166Z,22.45
2023-04-18T13:40:33.496Z,16.35
2023-04-18T13:43:04.211Z,17.90
2023-04-18T13:45:34.013Z,15.95
2023-04-18T13:48:06.189Z,15.38
2023-04-18T13:50:37.344Z,18.00
2023-04-18T13:53:08.071Z,17.02
2023-04-18T13:55:37.108Z,16.92
2023-04-18T13:58:05.049Z,14.90
2023-04-18T14:00:34.418Z,19.58
2023-04-18T14:03:02.591Z,15.75
2023-04-18T14:05:31.098Z,16.38
2023-04-18T14:08:04.132Z,13.68
2023-04-18T14:10:32.411Z,14.60
2023-04-18T14:13:00.749Z,15.98
2023-04-18T14:15:30.795Z,16.25
2023-04-18T14:18:01.078Z,14.02
2023-04-18T14:20:34.296Z,17.23
2023-04-18T14:23:02.375Z,14.02
2023-04-18T14:25:30.590Z,10.90
2023-04-18T14:28:05.722Z,14.55
2023-04-18T14:30:33.760Z,12.15
2023-04-18T14:33:03.749Z,12.27
2023-04-18T14:35:31.783Z,12.10
2023-04-18T14:37:59.772Z,12.95
2023-04-18T14:40:27.856Z,13.80
2023-04-18T14:42:57.872Z,17.23
2023-04-18T14:45:26.177Z,16.45
2023-04-18T14:47:55.694Z,15.52
2023-04-18T14:50:25.506Z,9.27
2023-04-18T14:52:53.435Z,9.45
2023-04-18T14:55:21.342Z,10.40
2023-04-18T14:57:49.419Z,13.77
2023-04-18T15:00:18.548Z,10.18
2023-04-18T15:02:46.634Z,13.07
2023-04-18T15:05:15.261Z,14.13
2023-04-18T15:07:45.178Z,13.60
2023-04-18T15:10:15.258Z,9.15
2023-04-18T15:12:43.444Z,9.93
2023-04-18T15:15:12.251Z,11.63
2023-04-18T15:17:40.530Z,9.80
2023-04-18T15:20:09.930Z,10.48
2023-04-18T15:22:38.076Z,11.73
2023-04-18T15:25:08.625Z,17.85
2023-04-18T15:27:39.619Z,13.35
2023-04-18T15:30:11.105Z,9.75
2023-04-18T15:32:40.297Z,14.50
2023-04-18T15:35:09.343Z,15.23
2023-04-18T15:37:37.954Z,11.93
2023-04-18T15:40:11.242Z,11.30
2023-04-18T15:42:59.924Z,11.88
2023-04-18T15:45:28.060Z,10.98
2023-04-18T15:47:56.077Z,10.18
2023-04-18T15:50:24.639Z,9.00
2023-04-18T15:52:52.979Z,10.13
2023-04-18T15:55:22.424Z,15.15
2023-04-18T15:57:50.399Z,8.50
2023-04-18T16:00:19.829Z,11.05
2023-04-18T16:02:47.969Z,10.45
2023-04-18T16:05:16.145Z,8.13
2023-04-18T16:07:44.454Z,8.10
2023-04-18T16:10:12.952Z,11.50
2023-04-18T16:12:42.460Z,10.35
2023-04-18T16:15:11.225Z,9.45
2023-04-18T16:17:39.216Z,9.35
2023-04-18T16:20:09.296Z,7.93
2023-04-18T16:22:37.431Z,7.72
2023-04-18T16:25:06.282Z,13.75
2023-04-18T16:27:34.267Z,13.73
2023-04-18T16:30:05.765Z,11.45
2023-04-18T16:32:34.060Z,12.13
2023-04-18T16:35:02.116Z,10.73
2023-04-18T16:37:30.149Z,9.40
2023-04-18T16:39:58.160Z,9.80
2023-04-18T16:42:26.263Z,10.00
2023-04-18T16:44:57.337Z,11.23
2023-04-18T16:47:26.872Z,13.53
2023-04-18T16:49:55.784Z,11.90
2023-04-18T16:52:23.697Z,17.67
2023-04-18T16:54:52.743Z,8.87
2023-04-18T16:57:20.804Z,10.67
2023-04-18T16:59:48.720Z,8.93
2023-04-18T17:02:18.181Z,9.00
2023-04-18T17:04:47.562Z,9.90
2023-04-18T17:07:15.720Z,12.17
2023-04-18T17:09:43.604Z,6.37
2023-04-18T17:12:11.607Z,8.03
2023-04-18T17:14:39.607Z,10.97
2023-04-18T17:17:07.559Z,8.47
2023-04-18T17:19:35.472Z,13.13
2023-04-18T17:22:04.811Z,8.93
2023-04-18T17:24:32.695Z,15.47
2023-04-18T17:27:01.262Z,8.97
2023-04-18T17:29:29.192Z,9.53
2023-04-18T17:31:57.091Z,8.53
2023-04-18T17:34:25.037Z,9.33
2023-04-18T17:36:52.909Z,10.60
2023-04-18T17:39:25.327Z,12.10
2023-04-18T17:41:53.344Z,10.23
2023-04-18T17:44:21.382Z,11.07
2023-04-18T17:46:50.569Z,10.80
2023-04-18T17:49:18.644Z,9.67
2023-04-18T17:51:46.612Z,9.43
2023-04-18T17:54:14.668Z,8.33
2023-04-18T17:56:44.196Z,10.07
2023-04-18T17:59:12.238Z,10.70
2023-04-18T18:01:41.235Z,12.60
2023-04-18T18:04:09.260Z,11.70
2023-04-18T18:06:37.305Z,8.23
2023-04-18T18:09:05.294Z,10.37
2023-04-18T18:11:33.395Z,9.43
2023-04-18T18:14:02.695Z,10.33
2023-04-18T18:16:30.854Z,9.40
2023-04-18T18:18:59.730Z,8.00
2023-04-18T18:21:28.784Z,9.17
2023-04-18T18:23:56.795Z,12.97
2023-04-18T18:26:26.441Z,8.37
2023-04-18T18:28:54.551Z,15.20
2023-04-18T18:31:25.000Z,10.63
2023-04-18T18:33:53.006Z,11.70
2023-04-18T18:36:21.142Z,12.77
2023-04-18T18:38:49.048Z,12.13
2023-04-18T18:41:17.068Z,15.73
2023-04-18T18:43:45.020Z,11.47
2023-04-18T18:46:13.091Z,13.33
2023-04-18T18:48:44.995Z,10.77
2023-04-18T18:51:22.656Z,12.53
2023-04-18T18:53:54.706Z,13.73
2023-04-18T18:56:26.294Z,9.87
2023-04-18T18:58:57.584Z,12.33
2023-04-18T19:01:30.852Z,12.30
2023-04-18T19:04:04.631Z,11.97
2023-04-18T19:06:39.082Z,10.60
2023-04-18T19:09:12.464Z,9.73
2023-04-18T19:11:42.028Z,10.60
2023-04-18T19:14:13.350Z,9.53
2023-04-18T19:17:01.859Z,13.20
2023-04-18T19:19:42.360Z,9.77
2023-04-18T19:22:17.543Z,14.77
2023-04-18T19:24:53.653Z,10.33
2023-04-18T19:27:27.324Z,9.97
2023-04-18T19:29:58.398Z,14.80
2023-04-18T19:32:33.956Z,15.40
2023-04-18T19:35:10.980Z,9.03
2023-04-18T19:37:43.529Z,10.97
2023-04-18T19:40:18.514Z,10.90
2023-04-18T19:42:54.719Z,11.67
2023-04-18T19:45:29.598Z,8.33
2023-04-18T19:48:05.217Z,10.93
2023-04-18T19:50:42.267Z,12.87
2023-04-18T19:53:22.444Z,13.80
2023-04-18T19:55:51.818Z,13.07
2023-04-18T19:58:38.822Z,9.20
2023-04-18T20:01:10.088Z,8.57
2023-04-18T20:03:41.421Z,10.63
2023-04-18T20:06:27.983Z,14.47
2023-04-18T20:09:04.826Z,8.63
2023-04-18T20:11:39.585Z,17.90
2023-04-18T20:14:11.077Z,9.07
2023-04-18T20:17:05.483Z,12.27
2023-04-18T20:19:40.396Z,8.77
2023-04-18T20:29:30.927Z,11.93
2023-04-18T20:32:06.649Z,10.43
2023-04-18T20:34:37.912Z,8.30
2023-04-18T20:37:12.171Z,10.60
2023-04-18T20:39:48.978Z,9.77
2023-04-18T20:42:20.375Z,12.37
2023-04-18T20:44:51.004Z,9.90
2023-04-18T20:47:30.770Z,10.97
2023-04-18T20:50:09.404Z,10.87
2023-04-18T20:52:43.565Z,12.47
2023-04-18T20:55:23.900Z,13.17
2023-04-18T20:58:07.121Z,10.37
2023-04-18T21:00:48.887Z,10.80
2023-04-18T21:03:34.242Z,10.20
2023-04-18T21:06:14.112Z,12.97
2023-04-18T21:08:43.295Z,10.60
2023-04-18T21:11:22.110Z,9.83
2023-04-18T21:13:54.069Z,10.30
2023-04-18T21:16:24.193Z,11.30
2023-04-18T21:18:52.638Z,10.60
2023-04-18T21:21:24.313Z,12.67
2023-04-18T21:23:52.925Z,12.30
2023-04-18T21:26:22.215Z,13.13
2023-04-18T21:28:57.888Z,12.13
2023-04-18T21:31:27.042Z,12.30
2023-04-18T21:33:55.941Z,13.67
2023-04-18T21:36:25.170Z,11.50
2023-04-18T21:38:54.104Z,13.07
2023-04-18T21:41:24.331Z,14.37
2023-04-18T21:43:52.954Z,12.60
2023-04-18T21:46:21.820Z,10.67
2023-04-18T21:48:50.656Z,15.60
2023-04-18T21:51:19.347Z,10.97
2023-04-18T21:53:48.180Z,10.43
2023-04-18T21:56:17.480Z,12.47
2023-04-18T21:58:47.872Z,13.60
2023-04-18T22:01:16.551Z,10.60
2023-04-18T22:03:45.308Z,10.83
2023-04-18T22:06:14.097Z,12.00
2023-04-18T22:08:43.897Z,14.50
2023-04-18T22:11:13.867Z,13.50
2023-04-18T22:13:45.115Z,14.57
2023-04-18T22:16:15.383Z,10.43
2023-04-18T22:18:43.974Z,14.10
2023-04-18T22:21:12.529Z,10.00
2023-04-18T22:23:40.969Z,9.50
2023-04-18T22:26:09.246Z,13.13
2023-04-18T22:28:37.881Z,10.20
2023-04-18T22:31:07.043Z,10.27
2023-04-18T22:33:37.263Z,10.10
2023-04-18T22:36:06.598Z,11.60
2023-04-18T22:38:35.303Z,20.30
2023-04-18T22:41:03.991Z,11.10
2023-04-18T22:43:32.583Z,11.00
2023-04-18T22:46:01.391Z,11.57
2023-04-18T22:48:30.175Z,13.10
2023-04-18T22:51:01.995Z,11.17
2023-04-18T22:53:30.789Z,9.90
2023-04-18T22:55:59.325Z,14.70
2023-04-18T22:58:28.114Z,13.87
2023-04-18T23:00:56.743Z,14.67
2023-04-18T23:03:25.432Z,10.87
2023-04-18T23:05:54.243Z,13.47
2023-04-18T23:08:24.254Z,12.03
2023-04-18T23:10:52.234Z,10.50
2023-04-18T23:13:20.907Z,12.53
2023-04-18T23:15:49.586Z,13.57
2023-04-18T23:18:18.119Z,15.73
2023-04-18T23:20:48.416Z,14.23
2023-04-18T23:23:17.043Z,14.27
2023-04-18T23:25:47.124Z,11.77
2023-04-18T23:28:17.271Z,13.50
2023-04-18T23:30:45.523Z,10.17
2023-04-18T23:41:47.052Z,12.87
2023-04-18T23:44:17.108Z,16.33
2023-04-18T23:46:45.666Z,11.13
2023-04-18T23:49:14.291Z,14.30
2023-04-18T23:51:42.814Z,17.17
2023-04-18T23:54:11.394Z,14.37
2023-04-18T23:56:40.104Z,14.87
2023-04-18T23:59:08.765Z,19.07
